sensor_id;sensor_type;location;lat;lon;timestamp;pressure;altitude;pressure_sealevel;temperature;humidity
73558;BME280;61829;53.286;10.434;2024-03-08T00:02:34;102163.06;;;2.44;81.79
73558;BME280;61829;53.286;10.434;2024-03-08T00:05:18;102162.22;;;2.44;81.61
73558;BME280;61829;53.286;10.434;2024-03-08T00:08:03;102172.09;;;2.42;81.71
73558;BME280;61829;53.286;10.434;2024-03-08T00:10:47;102160.06;;;2.36;81.93
73558;BME280;61829;53.286;10.434;2024-03-08T00:13:32;102165.44;;;2.35;81.96
73558;BME280;61829;53.286;10.434;2024-03-08T00:16:16;102165.75;;;2.30;82.28
73558;BME280;61829;53.286;10.434;2024-03-08T00:19:03;102151.81;;;2.27;82.33
73558;BME280;61829;53.286;10.434;2024-03-08T00:21:48;102152.47;;;2.30;82.28
73558;BME280;61829;53.286;10.434;2024-03-08T00:24:32;102159.88;;;2.25;82.25
73558;BME280;61829;53.286;10.434;2024-03-08T00:27:17;102148.28;;;2.26;82.46
73558;BME280;61829;53.286;10.434;2024-03-08T00:30:02;102157.22;;;2.25;82.28
73558;BME280;61829;53.286;10.434;2024-03-08T00:32:47;102154.75;;;2.22;82.62
73558;BME280;61829;53.286;10.434;2024-03-08T00:35:31;102158.56;;;2.18;83.07
73558;BME280;61829;53.286;10.434;2024-03-08T00:38:16;102159.50;;;2.17;82.87
73558;BME280;61829;53.286;10.434;2024-03-08T00:41:02;102153.81;;;2.09;83.74
73558;BME280;61829;53.286;10.434;2024-03-08T00:43:47;102153.75;;;2.10;83.26
73558;BME280;61829;53.286;10.434;2024-03-08T00:46:32;102151.72;;;2.14;82.91
73558;BME280;61829;53.286;10.434;2024-03-08T00:49:17;102156.47;;;2.09;82.90
73558;BME280;61829;53.286;10.434;2024-03-08T00:52:01;102152.22;;;2.06;83.58
73558;BME280;61829;53.286;10.434;2024-03-08T00:54:46;102149.66;;;2.05;83.39
73558;BME280;61829;53.286;10.434;2024-03-08T00:57:30;102147.09;;;2.03;83.78
73558;BME280;61829;53.286;10.434;2024-03-08T01:00:15;102149.00;;;2.01;83.69
73558;BME280;61829;53.286;10.434;2024-03-08T01:03:00;102147.41;;;1.98;83.78
73558;BME280;61829;53.286;10.434;2024-03-08T01:05:44;102142.16;;;1.97;83.58
73558;BME280;61829;53.286;10.434;2024-03-08T01:08:30;102128.31;;;1.92;83.96
73558;BME280;61829;53.286;10.434;2024-03-08T01:11:14;102131.06;;;1.90;83.93
73558;BME280;61829;53.286;10.434;2024-03-08T01:13:59;102118.91;;;1.86;84.31
73558;BME280;61829;53.286;10.434;2024-03-08T01:16:43;102121.13;;;1.79;84.72
73558;BME280;61829;53.286;10.434;2024-03-08T01:19:28;102121.75;;;1.83;84.66
73558;BME280;61829;53.286;10.434;2024-03-08T01:22:12;102117.50;;;1.80;84.58
73558;BME280;61829;53.286;10.434;2024-03-08T01:24:57;102116.91;;;1.75;84.47
73558;BME280;61829;53.286;10.434;2024-03-08T01:27:42;102110.88;;;1.73;84.34
73558;BME280;61829;53.286;10.434;2024-03-08T01:30:26;102105.75;;;1.70;84.50
73558;BME280;61829;53.286;10.434;2024-03-08T01:33:11;102104.78;;;1.71;84.67
73558;BME280;61829;53.286;10.434;2024-03-08T01:35:56;102098.91;;;1.66;85.04
73558;BME280;61829;53.286;10.434;2024-03-08T01:38:44;102093.69;;;1.65;84.88
73558;BME280;61829;53.286;10.434;2024-03-08T01:41:29;102096.75;;;1.59;85.27
73558;BME280;61829;53.286;10.434;2024-03-08T01:44:14;102087.03;;;1.57;85.28
73558;BME280;61829;53.286;10.434;2024-03-08T01:47:01;102084.69;;;1.53;85.71
73558;BME280;61829;53.286;10.434;2024-03-08T01:49:46;102077.78;;;1.50;85.49
73558;BME280;61829;53.286;10.434;2024-03-08T01:52:34;102076.16;;;1.48;85.61
73558;BME280;61829;53.286;10.434;2024-03-08T01:55:19;102071.97;;;1.44;85.19
73558;BME280;61829;53.286;10.434;2024-03-08T01:58:05;102076.53;;;1.42;85.51
73558;BME280;61829;53.286;10.434;2024-03-08T02:00:50;102062.56;;;1.38;85.94
73558;BME280;61829;53.286;10.434;2024-03-08T02:03:34;102061.91;;;1.34;86.24
73558;BME280;61829;53.286;10.434;2024-03-08T02:06:19;102060.22;;;1.33;85.89
73558;BME280;61829;53.286;10.434;2024-03-08T02:09:04;102066.47;;;1.32;86.20
73558;BME280;61829;53.286;10.434;2024-03-08T02:11:54;102061.53;;;1.26;86.56
73558;BME280;61829;53.286;10.434;2024-03-08T02:14:39;102057.06;;;1.27;86.82
73558;BME280;61829;53.286;10.434;2024-03-08T02:17:24;102053.75;;;1.23;87.00
73558;BME280;61829;53.286;10.434;2024-03-08T02:20:09;102051.09;;;1.23;86.75
73558;BME280;61829;53.286;10.434;2024-03-08T02:22:54;102050.25;;;1.23;87.26
73558;BME280;61829;53.286;10.434;2024-03-08T02:25:39;102051.19;;;1.22;87.13
73558;BME280;61829;53.286;10.434;2024-03-08T02:28:24;102043.34;;;1.20;86.85
73558;BME280;61829;53.286;10.434;2024-03-08T02:31:12;102049.88;;;1.15;87.26
73558;BME280;61829;53.286;10.434;2024-03-08T02:33:57;102043.59;;;1.16;87.49
73558;BME280;61829;53.286;10.434;2024-03-08T02:36:41;102047.03;;;1.18;87.74
73558;BME280;61829;53.286;10.434;2024-03-08T02:39:26;102045.59;;;1.12;87.96
73558;BME280;61829;53.286;10.434;2024-03-08T02:42:12;102044.09;;;1.08;87.81
73558;BME280;61829;53.286;10.434;2024-03-08T02:44:57;102043.91;;;1.11;87.90
73558;BME280;61829;53.286;10.434;2024-03-08T02:47:42;102036.88;;;1.10;87.98
73558;BME280;61829;53.286;10.434;2024-03-08T02:50:27;102030.03;;;1.06;87.82
73558;BME280;61829;53.286;10.434;2024-03-08T02:53:12;102031.84;;;1.05;87.89
73558;BME280;61829;53.286;10.434;2024-03-08T02:55:57;102031.94;;;1.04;87.78
73558;BME280;61829;53.286;10.434;2024-03-08T02:58:42;102032.91;;;1.03;88.36
73558;BME280;61829;53.286;10.434;2024-03-08T03:01:27;102026.22;;;0.96;88.46
73558;BME280;61829;53.286;10.434;2024-03-08T03:04:11;102021.50;;;1.01;88.13
73558;BME280;61829;53.286;10.434;2024-03-08T03:07:14;102024.34;;;0.98;88.44
73558;BME280;61829;53.286;10.434;2024-03-08T03:09:59;102021.88;;;0.95;88.11
73558;BME280;61829;53.286;10.434;2024-03-08T03:12:48;102018.28;;;0.96;88.81
73558;BME280;61829;53.286;10.434;2024-03-08T03:15:33;102016.56;;;0.95;88.09
73558;BME280;61829;53.286;10.434;2024-03-08T03:18:18;102017.69;;;0.90;88.19
73558;BME280;61829;53.286;10.434;2024-03-08T03:21:05;102026.63;;;0.89;88.37
73558;BME280;61829;53.286;10.434;2024-03-08T03:23:51;102016.00;;;0.89;88.55
73558;BME280;61829;53.286;10.434;2024-03-08T03:26:40;102012.50;;;0.89;88.41
73558;BME280;61829;53.286;10.434;2024-03-08T03:30:02;102018.75;;;0.88;88.68
73558;BME280;61829;53.286;10.434;2024-03-08T03:33:05;102013.53;;;0.86;88.59
73558;BME280;61829;53.286;10.434;2024-03-08T03:35:52;102014.69;;;0.82;88.14
73558;BME280;61829;53.286;10.434;2024-03-08T03:38:37;102020.16;;;0.79;88.79
73558;BME280;61829;53.286;10.434;2024-03-08T03:41:21;102012.28;;;0.78;88.94
73558;BME280;61829;53.286;10.434;2024-03-08T03:44:06;102010.78;;;0.74;88.84
73558;BME280;61829;53.286;10.434;2024-03-08T03:46:51;102012.66;;;0.72;89.14
73558;BME280;61829;53.286;10.434;2024-03-08T03:49:36;102013.44;;;0.74;88.62
73558;BME280;61829;53.286;10.434;2024-03-08T03:52:21;102015.97;;;0.75;89.66
73558;BME280;61829;53.286;10.434;2024-03-08T03:55:06;102011.81;;;0.71;89.52
73558;BME280;61829;53.286;10.434;2024-03-08T03:57:52;102017.13;;;0.71;89.59
73558;BME280;61829;53.286;10.434;2024-03-08T04:00:37;102016.34;;;0.69;89.02
73558;BME280;61829;53.286;10.434;2024-03-08T04:03:21;102020.88;;;0.67;89.51
73558;BME280;61829;53.286;10.434;2024-03-08T04:06:06;102009.44;;;0.66;89.58
73558;BME280;61829;53.286;10.434;2024-03-08T04:08:50;102011.22;;;0.66;89.48
73558;BME280;61829;53.286;10.434;2024-03-08T04:11:35;102010.47;;;0.64;89.64
73558;BME280;61829;53.286;10.434;2024-03-08T04:14:19;102005.34;;;0.61;89.35
73558;BME280;61829;53.286;10.434;2024-03-08T04:17:04;102004.56;;;0.59;89.40
73558;BME280;61829;53.286;10.434;2024-03-08T04:19:49;102003.81;;;0.57;89.58
73558;BME280;61829;53.286;10.434;2024-03-08T04:22:37;102007.31;;;0.57;89.31
73558;BME280;61829;53.286;10.434;2024-03-08T04:28:51;102003.97;;;0.54;89.62
73558;BME280;61829;53.286;10.434;2024-03-08T04:31:36;102011.00;;;0.55;89.22
73558;BME280;61829;53.286;10.434;2024-03-08T04:34:22;102010.16;;;0.54;89.90
73558;BME280;61829;53.286;10.434;2024-03-08T04:37:06;102009.28;;;0.54;89.24
73558;BME280;61829;53.286;10.434;2024-03-08T04:39:51;102001.50;;;0.51;89.00
73558;BME280;61829;53.286;10.434;2024-03-08T04:42:37;101999.81;;;0.50;89.78
73558;BME280;61829;53.286;10.434;2024-03-08T04:45:22;101991.84;;;0.50;89.72
73558;BME280;61829;53.286;10.434;2024-03-08T04:48:06;101991.19;;;0.46;89.67
73558;BME280;61829;53.286;10.434;2024-03-08T04:50:52;101992.22;;;0.43;90.12
73558;BME280;61829;53.286;10.434;2024-03-08T04:53:38;101986.06;;;0.43;90.14
73558;BME280;61829;53.286;10.434;2024-03-08T04:56:23;101979.91;;;0.42;89.73
73558;BME280;61829;53.286;10.434;2024-03-08T04:59:08;101985.19;;;0.42;89.52
73558;BME280;61829;53.286;10.434;2024-03-08T05:01:53;101985.31;;;0.41;89.47
73558;BME280;61829;53.286;10.434;2024-03-08T05:04:37;101984.47;;;0.40;89.74
73558;BME280;61829;53.286;10.434;2024-03-08T05:07:22;101973.75;;;0.42;89.62
73558;BME280;61829;53.286;10.434;2024-03-08T05:10:07;101980.09;;;0.39;89.29
73558;BME280;61829;53.286;10.434;2024-03-08T05:12:51;101986.25;;;0.40;89.72
73558;BME280;61829;53.286;10.434;2024-03-08T05:15:36;101973.19;;;0.37;90.38
73558;BME280;61829;53.286;10.434;2024-03-08T05:18:24;101977.72;;;0.35;89.35
73558;BME280;61829;53.286;10.434;2024-03-08T05:21:08;101979.59;;;0.33;89.76
73558;BME280;61829;53.286;10.434;2024-03-08T05:23:53;101976.19;;;0.31;89.84
73558;BME280;61829;53.286;10.434;2024-03-08T05:26:38;101974.28;;;0.33;89.94
73558;BME280;61829;53.286;10.434;2024-03-08T05:29:22;101974.28;;;0.33;90.60
73558;BME280;61829;53.286;10.434;2024-03-08T05:32:07;101972.50;;;0.33;90.37
73558;BME280;61829;53.286;10.434;2024-03-08T05:34:52;101973.44;;;0.32;89.96
73558;BME280;61829;53.286;10.434;2024-03-08T05:37:37;101969.00;;;0.33;89.95
73558;BME280;61829;53.286;10.434;2024-03-08T05:40:21;101980.44;;;0.33;90.22
73558;BME280;61829;53.286;10.434;2024-03-08T05:43:05;101974.22;;;0.34;89.75
73558;BME280;61829;53.286;10.434;2024-03-08T05:45:50;101967.38;;;0.30;90.10
73558;BME280;61829;53.286;10.434;2024-03-08T05:48:35;101976.28;;;0.29;90.98
73558;BME280;61829;53.286;10.434;2024-03-08T05:51:19;101967.66;;;0.26;90.66
73558;BME280;61829;53.286;10.434;2024-03-08T05:54:10;101965.88;;;0.26;91.09
73558;BME280;61829;53.286;10.434;2024-03-08T05:56:55;101970.97;;;0.29;90.95
73558;BME280;61829;53.286;10.434;2024-03-08T05:59:40;101970.03;;;0.30;90.27
73558;BME280;61829;53.286;10.434;2024-03-08T06:02:24;101963.03;;;0.29;91.08
73558;BME280;61829;53.286;10.434;2024-03-08T06:05:10;101963.03;;;0.29;91.13
73558;BME280;61829;53.286;10.434;2024-03-08T06:07:55;101973.44;;;0.32;90.66
73558;BME280;61829;53.286;10.434;2024-03-08T06:10:40;101969.66;;;0.36;90.69
73558;BME280;61829;53.286;10.434;2024-03-08T06:13:25;101969.47;;;0.39;90.56
73558;BME280;61829;53.286;10.434;2024-03-08T06:16:10;101970.53;;;0.37;90.32
73558;BME280;61829;53.286;10.434;2024-03-08T06:18:56;101962.84;;;0.32;90.75
73558;BME280;61829;53.286;10.434;2024-03-08T06:21:41;101979.41;;;0.36;90.58
73558;BME280;61829;53.286;10.434;2024-03-08T06:24:25;101967.59;;;0.41;90.37
73558;BME280;61829;53.286;10.434;2024-03-08T06:27:10;101972.06;;;0.41;89.96
73558;BME280;61829;53.286;10.434;2024-03-08T06:29:54;101969.28;;;0.42;89.90
73558;BME280;61829;53.286;10.434;2024-03-08T06:32:38;101972.53;;;0.48;90.44
73558;BME280;61829;53.286;10.434;2024-03-08T06:35:28;101962.69;;;0.50;89.98
73558;BME280;61829;53.286;10.434;2024-03-08T06:38:22;101965.81;;;0.56;89.80
73558;BME280;61829;53.286;10.434;2024-03-08T06:41:06;101970.09;;;0.59;90.11
73558;BME280;61829;53.286;10.434;2024-03-08T06:43:50;101963.66;;;0.63;89.83
73558;BME280;61829;53.286;10.434;2024-03-08T06:46:42;101960.91;;;0.64;89.71
73558;BME280;61829;53.286;10.434;2024-03-08T06:49:27;101955.34;;;0.69;89.50
73558;BME280;61829;53.286;10.434;2024-03-08T06:52:11;101954.31;;;0.72;90.56
73558;BME280;61829;53.286;10.434;2024-03-08T06:54:55;101954.88;;;0.77;90.60
73558;BME280;61829;53.286;10.434;2024-03-08T06:57:42;101963.31;;;0.83;90.11
73558;BME280;61829;53.286;10.434;2024-03-08T07:00:26;101951.94;;;0.96;89.79
73558;BME280;61829;53.286;10.434;2024-03-08T07:03:13;101957.22;;;1.10;89.83
73558;BME280;61829;53.286;10.434;2024-03-08T07:06:01;101959.31;;;1.33;89.64
73558;BME280;61829;53.286;10.434;2024-03-08T07:08:47;101960.59;;;1.55;88.96
73558;BME280;61829;53.286;10.434;2024-03-08T07:11:32;101956.44;;;1.78;88.08
73558;BME280;61829;53.286;10.434;2024-03-08T07:14:19;101947.47;;;1.93;86.97
73558;BME280;61829;53.286;10.434;2024-03-08T07:17:07;101952.19;;;2.02;86.41
73558;BME280;61829;53.286;10.434;2024-03-08T07:19:53;101953.81;;;2.18;86.12
73558;BME280;61829;53.286;10.434;2024-03-08T07:22:38;101945.94;;;2.29;84.97
73558;BME280;61829;53.286;10.434;2024-03-08T07:25:23;101959.84;;;2.47;83.80
73558;BME280;61829;53.286;10.434;2024-03-08T07:28:08;101955.25;;;2.49;83.33
73558;BME280;61829;53.286;10.434;2024-03-08T07:30:53;101953.56;;;2.74;82.44
73558;BME280;61829;53.286;10.434;2024-03-08T07:33:46;101954.75;;;2.95;81.15
73558;BME280;61829;53.286;10.434;2024-03-08T07:36:31;101943.22;;;3.07;80.82
73558;BME280;61829;53.286;10.434;2024-03-08T07:39:15;101947.38;;;3.11;79.88
73558;BME280;61829;53.286;10.434;2024-03-08T07:42:00;101948.09;;;3.26;79.43
73558;BME280;61829;53.286;10.434;2024-03-08T07:44:49;101952.31;;;3.42;78.15
73558;BME280;61829;53.286;10.434;2024-03-08T07:47:45;101953.19;;;3.66;77.37
73558;BME280;61829;53.286;10.434;2024-03-08T07:50:30;101953.03;;;3.80;77.58
73558;BME280;61829;53.286;10.434;2024-03-08T07:53:15;101944.97;;;3.93;75.51
73558;BME280;61829;53.286;10.434;2024-03-08T07:55:59;101957.19;;;4.09;76.14
73558;BME280;61829;53.286;10.434;2024-03-08T07:58:45;101947.25;;;4.11;76.03
73558;BME280;61829;53.286;10.434;2024-03-08T08:01:30;101950.44;;;4.27;74.83
73558;BME280;61829;53.286;10.434;2024-03-08T08:04:15;101949.41;;;4.41;75.23
73558;BME280;61829;53.286;10.434;2024-03-08T08:07:02;101946.69;;;4.76;73.69
73558;BME280;61829;53.286;10.434;2024-03-08T08:09:47;101945.38;;;4.82;72.19
73558;BME280;61829;53.286;10.434;2024-03-08T08:12:32;101942.78;;;4.80;73.09
73558;BME280;61829;53.286;10.434;2024-03-08T08:15:19;101951.19;;;5.21;72.07
73558;BME280;61829;53.286;10.434;2024-03-08T08:18:04;101940.09;;;5.48;70.84
73558;BME280;61829;53.286;10.434;2024-03-08T08:20:50;101939.13;;;5.37;69.64
73558;BME280;61829;53.286;10.434;2024-03-08T08:23:34;101942.44;;;5.41;69.66
73558;BME280;61829;53.286;10.434;2024-03-08T08:26:19;101944.59;;;5.47;69.75
73558;BME280;61829;53.286;10.434;2024-03-08T08:29:05;101942.72;;;5.70;69.05
73558;BME280;61829;53.286;10.434;2024-03-08T08:31:50;101939.03;;;5.94;68.64
73558;BME280;61829;53.286;10.434;2024-03-08T08:34:35;101944.59;;;6.02;67.11
73558;BME280;61829;53.286;10.434;2024-03-08T08:37:20;101930.97;;;6.05;66.72
73558;BME280;61829;53.286;10.434;2024-03-08T08:40:05;101931.50;;;6.20;67.25
73558;BME280;61829;53.286;10.434;2024-03-08T08:42:59;101933.41;;;6.29;66.63
73558;BME280;61829;53.286;10.434;2024-03-08T08:45:44;101932.22;;;6.22;67.20
73558;BME280;61829;53.286;10.434;2024-03-08T08:48:28;101921.41;;;6.23;66.21
73558;BME280;61829;53.286;10.434;2024-03-08T08:51:14;101934.59;;;6.36;65.43
73558;BME280;61829;53.286;10.434;2024-03-08T08:54:02;101913.94;;;6.48;65.29
73558;BME280;61829;53.286;10.434;2024-03-08T08:56:47;101919.84;;;6.63;64.55
73558;BME280;61829;53.286;10.434;2024-03-08T08:59:32;101914.03;;;6.58;64.12
73558;BME280;61829;53.286;10.434;2024-03-08T09:02:16;101916.94;;;6.75;64.90
73558;BME280;61829;53.286;10.434;2024-03-08T09:05:01;101916.09;;;6.75;64.49
73558;BME280;61829;53.286;10.434;2024-03-08T09:07:45;101917.06;;;6.74;64.44
73558;BME280;61829;53.286;10.434;2024-03-08T09:10:30;101907.16;;;6.95;64.49
73558;BME280;61829;53.286;10.434;2024-03-08T09:13:14;101900.94;;;6.95;63.50
73558;BME280;61829;53.286;10.434;2024-03-08T09:15:59;101904.81;;;7.02;63.96
73558;BME280;61829;53.286;10.434;2024-03-08T09:18:43;101896.16;;;6.98;63.20
73558;BME280;61829;53.286;10.434;2024-03-08T09:21:28;101892.09;;;7.04;64.07
73558;BME280;61829;53.286;10.434;2024-03-08T09:24:12;101881.25;;;7.06;62.59
73558;BME280;61829;53.286;10.434;2024-03-08T09:26:57;101886.19;;;7.10;61.54
73558;BME280;61829;53.286;10.434;2024-03-08T09:29:43;101870.34;;;6.97;60.17
73558;BME280;61829;53.286;10.434;2024-03-08T09:32:29;101877.22;;;7.31;61.18
73558;BME280;61829;53.286;10.434;2024-03-08T09:35:15;101870.19;;;7.39;60.44
73558;BME280;61829;53.286;10.434;2024-03-08T09:37:59;101863.16;;;7.58;60.06
73558;BME280;61829;53.286;10.434;2024-03-08T09:40:49;101860.63;;;7.56;58.46
73558;BME280;61829;53.286;10.434;2024-03-08T09:43:34;101865.25;;;7.64;58.96
73558;BME280;61829;53.286;10.434;2024-03-08T09:46:21;101861.47;;;7.86;58.97
73558;BME280;61829;53.286;10.434;2024-03-08T09:49:07;101863.00;;;7.88;58.49
73558;BME280;61829;53.286;10.434;2024-03-08T09:51:52;101858.94;;;7.84;57.84
73558;BME280;61829;53.286;10.434;2024-03-08T09:54:37;101861.47;;;7.86;57.62
73558;BME280;61829;53.286;10.434;2024-03-08T09:57:22;101845.66;;;7.73;57.48
73558;BME280;61829;53.286;10.434;2024-03-08T10:00:07;101843.09;;;7.72;57.17
73558;BME280;61829;53.286;10.434;2024-03-08T10:03:02;101844.94;;;7.71;57.03
73558;BME280;61829;53.286;10.434;2024-03-08T10:05:47;101841.72;;;7.87;57.16
73558;BME280;61829;53.286;10.434;2024-03-08T10:08:33;101832.09;;;8.04;56.49
73558;BME280;61829;53.286;10.434;2024-03-08T10:11:18;101832.75;;;8.16;55.35
73558;BME280;61829;53.286;10.434;2024-03-08T10:14:02;101824.13;;;8.22;55.87
73558;BME280;61829;53.286;10.434;2024-03-08T10:16:47;101820.66;;;8.49;55.20
73558;BME280;61829;53.286;10.434;2024-03-08T10:19:31;101818.81;;;8.59;55.19
73558;BME280;61829;53.286;10.434;2024-03-08T10:22:16;101807.34;;;8.67;54.28
73558;BME280;61829;53.286;10.434;2024-03-08T10:25:01;101804.38;;;8.88;54.76
73558;BME280;61829;53.286;10.434;2024-03-08T10:27:45;101802.31;;;8.82;54.34
73558;BME280;61829;53.286;10.434;2024-03-08T10:30:30;101797.13;;;8.98;54.80
73558;BME280;61829;53.286;10.434;2024-03-08T10:33:15;101791.22;;;9.12;55.39
73558;BME280;61829;53.286;10.434;2024-03-08T10:36:00;101790.69;;;9.09;53.87
73558;BME280;61829;53.286;10.434;2024-03-08T10:38:46;101785.53;;;8.97;54.11
73558;BME280;61829;53.286;10.434;2024-03-08T10:41:36;101782.31;;;9.12;54.33
73558;BME280;61829;53.286;10.434;2024-03-08T10:50:35;101767.78;;;9.22;55.59
73558;BME280;61829;53.286;10.434;2024-03-08T10:53:20;101766.03;;;9.49;54.60
73558;BME280;61829;53.286;10.434;2024-03-08T10:56:07;101757.63;;;9.70;51.30
73558;BME280;61829;53.286;10.434;2024-03-08T10:58:55;101752.69;;;9.83;51.32
73558;BME280;61829;53.286;10.434;2024-03-08T11:01:41;101754.63;;;9.73;51.60
73558;BME280;61829;53.286;10.434;2024-03-08T11:04:25;101750.94;;;9.74;49.35
73558;BME280;61829;53.286;10.434;2024-03-08T11:07:12;101741.06;;;9.83;48.26
73558;BME280;61829;53.286;10.434;2024-03-08T11:10:04;101738.66;;;9.98;47.87
73558;BME280;61829;53.286;10.434;2024-03-08T11:12:49;101737.91;;;9.87;47.98
73558;BME280;61829;53.286;10.434;2024-03-08T11:15:38;101720.13;;;9.95;48.00
73558;BME280;61829;53.286;10.434;2024-03-08T11:18:23;101729.50;;;10.17;47.44
73558;BME280;61829;53.286;10.434;2024-03-08T11:21:08;101724.13;;;10.17;46.29
73558;BME280;61829;53.286;10.434;2024-03-08T11:24:00;101713.53;;;10.23;46.82
73558;BME280;61829;53.286;10.434;2024-03-08T11:26:45;101709.81;;;10.24;46.69
73558;BME280;61829;53.286;10.434;2024-03-08T11:32:16;101701.09;;;10.22;45.95
73558;BME280;61829;53.286;10.434;2024-03-08T11:35:06;101697.81;;;10.37;46.41
73558;BME280;61829;53.286;10.434;2024-03-08T11:37:58;101692.38;;;10.28;45.91
73558;BME280;61829;53.286;10.434;2024-03-08T11:40:46;101688.84;;;10.28;45.55
73558;BME280;61829;53.286;10.434;2024-03-08T11:43:33;101689.41;;;10.40;45.85
73558;BME280;61829;53.286;10.434;2024-03-08T11:46:19;101701.25;;;10.55;46.47
73558;BME280;61829;53.286;10.434;2024-03-08T11:49:04;101684.72;;;10.42;46.37
73558;BME280;61829;53.286;10.434;2024-03-08T11:51:53;101690.56;;;10.37;45.44
73558;BME280;61829;53.286;10.434;2024-03-08T11:54:38;101683.28;;;10.29;45.96
73558;BME280;61829;53.286;10.434;2024-03-08T11:57:24;101673.56;;;10.37;45.28
73558;BME280;61829;53.286;10.434;2024-03-08T12:00:15;101677.97;;;10.46;46.76
73558;BME280;61829;53.286;10.434;2024-03-08T12:03:08;101667.56;;;10.59;45.01
73558;BME280;61829;53.286;10.434;2024-03-08T12:05:58;101659.81;;;10.56;44.83
73558;BME280;61829;53.286;10.434;2024-03-08T12:08:46;101656.47;;;10.62;45.17
73558;BME280;61829;53.286;10.434;2024-03-08T12:11:33;101662.88;;;10.69;45.31
73558;BME280;61829;53.286;10.434;2024-03-08T12:14:19;101651.75;;;10.56;45.09
73558;BME280;61829;53.286;10.434;2024-03-08T12:17:04;101639.09;;;10.56;44.95
73558;BME280;61829;53.286;10.434;2024-03-08T12:19:50;101640.94;;;10.64;43.52
73558;BME280;61829;53.286;10.434;2024-03-08T12:22:45;101636.94;;;10.76;43.18
73558;BME280;61829;53.286;10.434;2024-03-08T12:25:33;101633.41;;;10.76;43.21
73558;BME280;61829;53.286;10.434;2024-03-08T12:28:20;101627.00;;;10.77;42.66
73558;BME280;61829;53.286;10.434;2024-03-08T12:31:11;101620.94;;;10.83;43.37
73558;BME280;61829;53.286;10.434;2024-03-08T12:33:56;101619.25;;;10.82;42.54
73558;BME280;61829;53.286;10.434;2024-03-08T12:36:45;101611.66;;;10.69;42.44
73558;BME280;61829;53.286;10.434;2024-03-08T12:39:31;101611.84;;;10.76;43.06
73558;BME280;61829;53.286;10.434;2024-03-08T12:42:18;101606.09;;;10.71;42.27
73558;BME280;61829;53.286;10.434;2024-03-08T12:45:03;101599.22;;;10.76;42.90
73558;BME280;61829;53.286;10.434;2024-03-08T12:47:55;101606.44;;;10.92;42.00
73558;BME280;61829;53.286;10.434;2024-03-08T12:50:39;101592.31;;;10.82;41.20
73558;BME280;61829;53.286;10.434;2024-03-08T12:53:25;101595.16;;;10.81;41.28
73558;BME280;61829;53.286;10.434;2024-03-08T12:56:19;101588.59;;;10.83;40.96
73558;BME280;61829;53.286;10.434;2024-03-08T12:59:07;101570.38;;;10.69;41.27
73558;BME280;61829;53.286;10.434;2024-03-08T13:01:51;101576.59;;;10.53;41.54
73558;BME280;61829;53.286;10.434;2024-03-08T13:04:38;101570.56;;;10.67;41.69
73558;BME280;61829;53.286;10.434;2024-03-08T13:07:25;101560.44;;;10.69;42.22
73558;BME280;61829;53.286;10.434;2024-03-08T13:10:10;101569.56;;;10.85;41.47
73558;BME280;61829;53.286;10.434;2024-03-08T13:12:58;101556.72;;;10.87;40.35
73558;BME280;61829;53.286;10.434;2024-03-08T13:15:43;101554.38;;;10.84;41.13
73558;BME280;61829;53.286;10.434;2024-03-08T13:18:27;101555.88;;;10.78;40.48
73558;BME280;61829;53.286;10.434;2024-03-08T13:21:13;101552.00;;;10.72;41.17
73558;BME280;61829;53.286;10.434;2024-03-08T13:23:58;101555.72;;;10.79;39.94
73558;BME280;61829;53.286;10.434;2024-03-08T13:26:44;101530.44;;;10.64;39.56
73558;BME280;61829;53.286;10.434;2024-03-08T13:29:29;101536.34;;;10.68;39.96
73558;BME280;61829;53.286;10.434;2024-03-08T13:32:15;101531.47;;;10.79;40.54
73558;BME280;61829;53.286;10.434;2024-03-08T13:35:00;101526.06;;;11.04;39.52
73558;BME280;61829;53.286;10.434;2024-03-08T13:37:45;101522.16;;;11.07;39.25
73558;BME280;61829;53.286;10.434;2024-03-08T13:40:29;101527.06;;;10.95;38.40
73558;BME280;61829;53.286;10.434;2024-03-08T13:43:15;101507.53;;;10.93;39.80
73558;BME280;61829;53.286;10.434;2024-03-08T13:46:00;101515.78;;;10.83;37.68
73558;BME280;61829;53.286;10.434;2024-03-08T13:48:45;101501.63;;;10.81;38.95
73558;BME280;61829;53.286;10.434;2024-03-08T13:51:29;101496.56;;;10.86;39.54
73558;BME280;61829;53.286;10.434;2024-03-08T13:54:15;101491.53;;;10.83;37.91
73558;BME280;61829;53.286;10.434;2024-03-08T13:57:00;101479.22;;;10.72;38.60
73558;BME280;61829;53.286;10.434;2024-03-08T13:59:48;101473.53;;;10.59;39.04
73558;BME280;61829;53.286;10.434;2024-03-08T14:02:35;101474.88;;;10.63;39.45
73558;BME280;61829;53.286;10.434;2024-03-08T14:05:21;101474.50;;;10.91;39.13
73558;BME280;61829;53.286;10.434;2024-03-08T14:08:06;101462.06;;;10.82;37.87
73558;BME280;61829;53.286;10.434;2024-03-08T14:10:51;101464.22;;;10.70;37.54
73558;BME280;61829;53.286;10.434;2024-03-08T14:13:44;101462.56;;;10.69;39.28
73558;BME280;61829;53.286;10.434;2024-03-08T14:16:29;101447.06;;;10.71;38.59
73558;BME280;61829;53.286;10.434;2024-03-08T14:19:14;101437.81;;;10.73;38.77
73558;BME280;61829;53.286;10.434;2024-03-08T14:21:59;101439.13;;;10.69;38.92
73558;BME280;61829;53.286;10.434;2024-03-08T14:24:44;101431.03;;;10.69;39.29
73558;BME280;61829;53.286;10.434;2024-03-08T14:27:29;101427.50;;;10.77;39.99
73558;BME280;61829;53.286;10.434;2024-03-08T14:30:13;101422.47;;;10.74;40.45
73558;BME280;61829;53.286;10.434;2024-03-08T14:33:16;101426.19;;;10.65;40.06
73558;BME280;61829;53.286;10.434;2024-03-08T14:36:00;101421.78;;;10.72;40.73
73558;BME280;61829;53.286;10.434;2024-03-08T14:38:48;101416.88;;;10.75;40.77